Time;durP1;ratioP1;P1;durP2;ratioP2;P2;SDS_P1;SDS_P2;PMS_P1;PMS_P2;Temp;Humidity;BMP_temperature;BMP_pressure;BME280_temperature;BME280_humidity;BME280_pressure;Samples;Min_cycle;Max_cycle;Signal;HPM_P1;HPM_P2
2021/04/28 00:01:48;;;;;;;10.07;6.15;;;;;;;12.74;62.66;94155.91;3000737;39;20046;-84
2021/04/28 00:03:49;;;;;;;13.23;6.40;;;;;;;12.76;62.58;94153.91;2995547;39;20038;-85
2021/04/28 00:05:50;;;;;;;12.15;7.38;;;;;;;12.78;62.63;94152.72;2996737;39;20281;-85
2021/04/28 00:07:52;;;;;;;9.73;6.53;;;;;;;12.81;62.56;94160.22;2997675;39;20419;-86
2021/04/28 00:09:53;;;;;;;10.65;6.70;;;;;;;12.79;62.85;94146.44;2984393;39;20072;-85
2021/04/28 00:11:54;;;;;;;9.95;5.75;;;;;;;12.76;63.19;94157.34;2987850;39;20062;-85
2021/04/28 00:13:56;;;;;;;16.33;6.32;;;;;;;12.71;63.27;94164.94;2997153;39;20047;-84
2021/04/28 00:15:57;;;;;;;10.27;6.45;;;;;;;12.71;62.81;94164.94;2988272;39;20061;-85
2021/04/28 00:17:58;;;;;;;11.57;6.68;;;;;;;12.69;63.01;94165.16;2996430;39;20062;-85
2021/04/28 00:20:00;;;;;;;11.25;6.68;;;;;;;12.69;63.18;94170.41;2996739;39;20035;-85
2021/04/28 00:22:01;;;;;;;12.60;6.80;;;;;;;12.69;62.90;94169.56;2987858;39;20131;-85
2021/04/28 00:24:03;;;;;;;13.82;7.10;;;;;;;12.69;62.75;94161.69;3001561;39;20046;-83
2021/04/28 00:26:04;;;;;;;10.68;6.40;;;;;;;12.69;62.81;94165.16;2992500;39;20415;-85
2021/04/28 00:28:06;;;;;;;10.68;6.53;;;;;;;12.67;62.71;94171.59;2990860;39;20055;-84
2021/04/28 00:30:10;;;;;;;10.15;6.53;;;;;;;12.55;63.51;94166.00;2999638;39;20054;-85
2021/04/28 00:32:11;;;;;;;;;;;;;;;12.50;63.36;94174.44;2992414;39;20051;-85
2021/04/28 00:34:12;;;;;;;10.60;6.75;;;;;;;12.53;63.59;94162.72;3001463;39;19931;-84
2021/04/28 00:36:14;;;;;;;9.27;6.80;;;;;;;12.53;63.46;94172.44;3001396;39;20057;-83
2021/04/28 00:38:15;;;;;;;11.75;7.07;;;;;;;12.48;63.45;94158.03;3002260;39;20047;-86
2021/04/28 00:40:23;;;;;;;10.70;6.47;;;;;;;12.48;63.60;94170.34;3002096;39;20059;-85
2021/04/28 00:42:24;;;;;;;10.25;6.45;;;;;;;12.47;63.53;94169.53;2993269;39;20083;-85
2021/04/28 00:44:26;;;;;;;11.57;6.82;;;;;;;12.50;63.48;94169.16;2994658;39;20071;-83
2021/04/28 00:46:39;;;;;;;11.07;6.70;;;;;;;12.44;63.60;94169.09;2998386;39;20067;-86
2021/04/28 00:48:41;;;;;;;8.98;6.03;;;;;;;12.48;63.28;94172.97;2997332;39;20423;-84
2021/04/28 00:50:45;;;;;;;10.05;6.28;;;;;;;12.52;63.30;94184.75;2987131;39;20440;-86
2021/04/28 00:52:46;;;;;;;9.18;6.18;;;;;;;12.53;63.20;94183.75;2987503;39;20097;-83
2021/04/28 00:54:50;;;;;;;10.48;6.13;;;;;;;12.35;63.66;94176.25;2996629;39;20055;-86
2021/04/28 00:56:53;;;;;;;11.48;6.20;;;;;;;11.48;66.11;94179.41;2987268;39;20059;-85
2021/04/28 00:58:55;;;;;;;15.57;7.15;;;;;;;11.20;67.09;94176.50;2988129;39;20031;-85
2021/04/28 01:00:57;;;;;;;11.18;6.28;;;;;;;10.85;68.41;94183.97;2986993;39;20104;-85
2021/04/28 01:02:59;;;;;;;8.88;5.07;;;;;;;10.75;68.93;94178.94;2986886;39;20095;-85
2021/04/28 01:05:01;;;;;;;7.60;4.95;;;;;;;10.82;68.60;94169.41;2989258;39;20059;-85
2021/04/28 01:07:07;;;;;;;8.68;5.15;;;;;;;11.01;68.40;94162.91;2998192;39;20035;-83
2021/04/28 01:09:08;;;;;;;9.20;5.75;;;;;;;11.22;67.52;94162.22;2987512;39;20056;-84
2021/04/28 01:11:09;;;;;;;11.63;5.60;;;;;;;11.43;67.11;94161.56;2978910;40;20056;-85
2021/04/28 01:13:11;;;;;;;9.15;5.93;;;;;;;11.58;66.36;94168.66;2998438;39;20032;-83
2021/04/28 01:15:16;;;;;;;10.38;5.07;;;;;;;11.70;66.14;94159.34;2986957;39;20063;-83
2021/04/28 01:17:18;;;;;;;6.82;5.05;;;;;;;11.79;65.75;94163.53;2988641;39;20028;-85
2021/04/28 01:19:23;;;;;;;10.77;6.15;;;;;;;11.92;65.57;94155.09;2978318;39;20062;-84
2021/04/28 01:21:25;;;;;;;13.40;6.35;;;;;;;11.99;64.80;94155.97;2973864;39;20382;-72
2021/04/28 01:23:26;;;;;;;12.13;5.60;;;;;;;12.09;64.85;94160.97;2988112;39;20054;-72
2021/04/28 01:25:28;;;;;;;9.15;5.82;;;;;;;12.16;64.63;94156.63;2981396;39;20059;-72
2021/04/28 01:27:29;;;;;;;12.13;5.57;;;;;;;12.22;64.31;94148.00;2989660;39;20055;-70
2021/04/28 01:29:31;;;;;;;10.38;6.30;;;;;;;12.24;64.26;94151.28;2979545;39;20558;-72
2021/04/28 01:31:48;;;;;;;12.73;6.80;;;;;;;12.26;64.63;94151.91;2992954;39;20328;-73
2021/04/28 01:33:55;;;;;;;11.27;7.38;;;;;;;12.27;64.27;94150.91;2988261;39;20379;-73
2021/04/28 01:35:57;;;;;;;14.27;6.07;;;;;;;12.31;64.33;94142.66;2984718;39;20059;-73
2021/04/28 01:38:00;;;;;;;12.98;6.20;;;;;;;12.29;64.73;94146.28;2984731;39;20059;-73
2021/04/28 01:40:03;;;;;;;12.07;6.43;;;;;;;12.16;65.05;94146.13;2982966;39;20140;-71
2021/04/28 01:42:05;;;;;;;12.60;6.55;;;;;;;12.04;65.10;94144.94;2991025;39;20081;-73
2021/04/28 01:44:07;;;;;;;10.00;6.15;;;;;;;11.92;65.38;94152.47;2975670;39;20286;-72
2021/04/28 01:46:09;;;;;;;9.75;6.00;;;;;;;11.65;65.74;94143.34;2989319;39;20404;-73
2021/04/28 01:48:11;;;;;;;13.07;7.38;;;;;;;11.65;65.62;94148.59;2979473;39;20082;-73
2021/04/28 01:50:14;;;;;;;10.48;6.07;;;;;;;11.64;65.19;94141.72;2989391;39;20084;-72
2021/04/28 01:52:15;;;;;;;11.90;5.75;;;;;;;11.53;66.02;94139.50;2992376;39;20286;-72
2021/04/28 01:54:18;;;;;;;12.43;5.97;;;;;;;11.58;65.99;94148.50;2980928;39;20527;-71
2021/04/28 01:56:22;;;;;;;11.52;6.18;;;;;;;11.67;65.91;94141.34;2983158;39;20120;-73
2021/04/28 01:58:24;;;;;;;11.95;6.53;;;;;;;11.79;65.90;94150.44;2983117;39;20488;-73
2021/04/28 02:00:25;;;;;;;10.23;6.15;;;;;;;11.87;65.45;94149.50;2992868;39;20087;-72
2021/04/28 02:02:27;;;;;;;15.13;6.43;;;;;;;11.93;65.21;94156.69;2983780;39;20087;-72
2021/04/28 02:04:29;;;;;;;9.45;6.75;;;;;;;11.94;64.90;94160.97;2980441;39;20062;-71
2021/04/28 02:06:30;;;;;;;9.20;6.20;;;;;;;11.98;65.04;94156.16;2983440;39;20047;-72
2021/04/28 02:08:35;;;;;;;12.57;6.47;;;;;;;11.86;64.97;94155.78;2979333;39;20070;-72
2021/04/28 02:10:37;;;;;;;7.82;5.25;;;;;;;11.41;65.99;94165.38;2990176;39;20491;-72
2021/04/28 02:12:39;;;;;;;14.05;6.80;;;;;;;10.66;67.78;94165.06;2992686;39;20051;-71
2021/04/28 02:14:41;;;;;;;15.77;5.95;;;;;;;10.46;68.95;94169.13;2982848;39;20048;-73
2021/04/28 02:16:43;;;;;;;34.83;17.63;;;;;;;10.40;69.12;94169.78;2983780;39;20432;-71
2021/04/28 02:18:44;;;;;;;23.45;13.50;;;;;;;10.54;69.51;94166.47;2978721;39;20072;-72
2021/04/28 02:20:46;;;;;;;30.25;16.60;;;;;;;10.66;70.03;94165.06;2979794;39;20070;-72
2021/04/28 02:22:48;;;;;;;28.50;16.30;;;;;;;10.47;71.06;94160.25;2983533;39;20183;-71
2021/04/28 02:24:49;;;;;;;29.58;18.42;;;;;;;10.18;72.32;94155.63;2982620;39;20071;-71
2021/04/28 02:26:55;;;;;;;36.35;20.85;;;;;;;10.07;73.54;94153.34;2981683;39;20435;-72
2021/04/28 02:28:57;;;;;;;46.72;26.58;;;;;;;9.65;75.19;94157.91;2991895;39;20051;-71
2021/04/28 02:30:59;;;;;;;41.20;23.10;;;;;;;9.73;75.33;94160.50;2992854;39;20050;-71
2021/04/28 02:33:01;;;;;;;34.03;21.13;;;;;;;10.01;74.16;94160.09;2993528;39;20059;-72
2021/04/28 02:35:03;;;;;;;34.45;21.33;;;;;;;10.24;72.93;94163.63;2985849;39;20169;-72
2021/04/28 02:37:05;;;;;;;35.17;20.60;;;;;;;10.42;72.37;94157.34;2986514;39;20382;-72
2021/04/28 02:39:12;;;;;;;38.33;17.42;;;;;;;10.42;71.82;94162.59;2997899;39;20404;-71
2021/04/28 02:41:13;;;;;;;34.38;17.83;;;;;;;10.57;71.55;94162.69;2983901;39;20056;-73
2021/04/28 02:43:16;;;;;;;23.17;14.90;;;;;;;10.71;71.15;94166.34;2976335;39;20059;-72
2021/04/28 02:45:20;;;;;;;22.13;13.50;;;;;;;10.84;70.44;94166.59;2985543;39;20060;-71
2021/04/28 02:47:22;;;;;;;21.73;13.60;;;;;;;10.97;70.22;94163.41;2994374;39;20055;-72
2021/04/28 02:49:25;;;;;;;16.73;11.50;;;;;;;11.07;69.56;94164.00;2984285;39;20052;-72
2021/04/28 02:51:28;;;;;;;22.20;12.60;;;;;;;11.16;69.06;94165.56;2986340;39;20356;-72
2021/04/28 02:53:31;;;;;;;22.80;12.75;;;;;;;11.07;69.68;94162.19;2983999;39;20084;-72
2021/04/28 02:55:32;;;;;;;25.80;12.38;;;;;;;11.07;69.46;94166.63;2980055;39;20079;-85
2021/04/28 02:57:34;;;;;;;19.35;11.32;;;;;;;11.09;69.46;94174.31;2979284;40;20044;-86
2021/04/28 02:59:35;;;;;;;18.92;11.75;;;;;;;10.86;70.43;94172.47;2987331;39;20071;-85
2021/04/28 03:01:39;;;;;;;23.65;11.15;;;;;;;10.57;71.23;94181.00;2980637;40;20087;-84
2021/04/28 03:03:41;;;;;;;17.55;11.05;;;;;;;10.62;71.85;94184.72;2993847;39;20055;-86
2021/04/28 03:05:48;;;;;;;18.67;10.18;;;;;;;10.76;71.46;94182.38;2997485;39;20306;-83
2021/04/28 03:07:50;;;;;;;16.85;10.07;;;;;;;10.91;70.54;94183.28;2987949;39;20099;-85
2021/04/28 03:09:51;;;;;;;17.10;9.35;;;;;;;11.03;70.13;94181.06;2981221;39;20336;-86
2021/04/28 03:11:52;;;;;;;15.27;10.05;;;;;;;11.14;69.87;94179.84;2987978;39;20060;-84
2021/04/28 03:13:57;;;;;;;16.40;10.02;;;;;;;11.23;69.69;94187.47;2979926;39;20044;-86
2021/04/28 03:15:59;;;;;;;14.55;8.45;;;;;;;11.19;69.65;94185.38;2987730;39;20417;-85
2021/04/28 03:18:00;;;;;;;18.48;10.27;;;;;;;11.03;70.24;94194.16;2996625;39;20423;-86
2021/04/28 03:20:02;;;;;;;16.15;9.82;;;;;;;11.05;70.01;94197.44;2992011;39;20035;-84
2021/04/28 03:22:04;;;;;;;14.45;8.60;;;;;;;11.12;70.43;94195.75;2979069;39;20099;-87
2021/04/28 03:24:05;;;;;;;13.93;9.20;;;;;;;11.22;69.77;94196.31;2987356;39;20095;-86
2021/04/28 03:26:10;;;;;;;12.35;8.45;;;;;;;11.28;69.66;94189.56;2987465;39;20038;-85
2021/04/28 03:28:12;;;;;;;14.80;9.18;;;;;;;11.34;69.46;94201.97;2979256;39;20087;-86
2021/04/28 03:30:13;;;;;;;16.25;9.68;;;;;;;11.38;69.14;94192.78;2979610;39;20032;-84
2021/04/28 03:32:15;;;;;;;14.50;8.73;;;;;;;11.42;69.35;94199.31;2985896;39;20115;-70
2021/04/28 03:34:17;;;;;;;16.40;8.93;;;;;;;11.48;68.62;94201.19;2993102;39;20097;-70
2021/04/28 03:36:18;;;;;;;12.70;8.55;;;;;;;11.56;68.34;94204.75;3000800;39;20053;-72
2021/04/28 03:38:19;;;;;;;15.38;8.77;;;;;;;11.58;68.37;94200.97;2976631;39;20044;-73
2021/04/28 03:40:21;;;;;;;16.95;8.65;;;;;;;11.63;68.39;94208.28;2998664;39;20071;-74
2021/04/28 03:42:23;;;;;;;14.23;8.70;;;;;;;11.63;68.45;94210.91;2997407;39;20039;-71
2021/04/28 03:44:26;;;;;;;17.75;9.73;;;;;;;11.60;68.48;94216.53;2987729;39;20082;-72
2021/04/28 03:46:27;;;;;;;15.32;8.90;;;;;;;11.60;68.33;94222.59;2983831;39;20051;-71
2021/04/28 03:48:28;;;;;;;14.63;8.63;;;;;;;11.64;68.09;94223.06;2997708;39;20135;-73
2021/04/28 03:50:30;;;;;;;13.50;9.48;;;;;;;11.65;67.94;94228.09;2994479;39;20039;-83
2021/04/28 03:52:40;;;;;;;15.77;8.95;;;;;;;11.72;68.02;94227.41;2989025;39;20036;-85
2021/04/28 03:54:41;;;;;;;15.13;8.93;;;;;;;11.71;67.55;94226.59;2997129;39;20464;-87
2021/04/28 03:56:44;;;;;;;15.93;8.10;;;;;;;11.78;67.52;94226.69;2997780;39;20352;-84
2021/04/28 03:58:45;;;;;;;18.27;8.40;;;;;;;11.80;67.45;94224.72;2998960;39;20043;-85
2021/04/28 04:00:46;;;;;;;12.57;8.38;;;;;;;11.82;67.36;94220.91;2998977;39;20099;-85
2021/04/28 04:02:48;;;;;;;15.07;8.25;;;;;;;11.86;67.16;94216.13;2985416;39;20088;-83
2021/04/28 04:04:49;;;;;;;14.38;8.13;;;;;;;11.92;66.87;94220.69;3002390;39;20036;-84
2021/04/28 04:06:51;;;;;;;14.35;8.13;;;;;;;11.94;66.60;94231.00;2988445;39;20059;-86
2021/04/28 04:08:52;;;;;;;15.93;8.88;;;;;;;11.91;66.92;94221.69;2998294;39;20386;-86
2021/04/28 04:10:53;;;;;;;15.02;8.23;;;;;;;11.83;66.78;94219.94;2997535;39;20027;-84
2021/04/28 04:12:54;;;;;;;13.55;8.52;;;;;;;11.87;67.25;94223.84;3000883;39;20373;-87
2021/04/28 04:14:55;;;;;;;14.80;9.65;;;;;;;11.89;67.02;94239.41;2991408;39;20031;-84
2021/04/28 04:16:57;;;;;;;15.98;8.25;;;;;;;11.81;66.64;94247.34;3000670;39;20056;-86
2021/04/28 04:18:58;;;;;;;21.02;8.75;;;;;;;11.43;68.43;94245.50;2991303;39;20051;-86
2021/04/28 04:20:59;;;;;;;16.92;8.70;;;;;;;11.38;67.82;94239.13;2991639;39;20031;-86
2021/04/28 04:23:01;;;;;;;14.77;8.70;;;;;;;11.23;68.82;94249.59;2991225;39;20043;-86
2021/04/28 04:25:05;;;;;;;22.33;9.77;;;;;;;11.13;69.03;94249.00;2999637;39;20111;-85
2021/04/28 04:27:07;;;;;;;20.30;10.32;;;;;;;11.24;68.96;94252.03;2990616;39;20140;-87
2021/04/28 04:29:08;;;;;;;18.65;9.70;;;;;;;11.39;68.31;94246.03;2988713;39;20046;-85
2021/04/28 04:31:09;;;;;;;17.00;8.65;;;;;;;11.39;68.47;94249.47;2998882;39;20063;-84
2021/04/28 04:33:14;;;;;;;16.23;9.00;;;;;;;11.44;67.98;94247.16;2996392;39;20035;-87
2021/04/28 04:35:16;;;;;;;17.77;9.25;;;;;;;11.46;68.14;94247.78;2994080;39;20069;-86
2021/04/28 04:37:17;;;;;;;18.42;10.00;;;;;;;11.52;68.00;94246.25;2994416;39;20401;-72
2021/04/28 04:39:18;;;;;;;18.83;10.60;;;;;;;11.73;67.35;94250.84;2985225;39;20053;-73
2021/04/28 04:41:20;;;;;;;18.55;10.70;;;;;;;11.93;66.67;94248.56;2993297;39;20055;-71
2021/04/28 04:43:21;;;;;;;19.42;11.93;;;;;;;11.94;65.73;94247.59;3000461;39;20050;-74
2021/04/28 04:45:23;;;;;;;22.02;12.43;;;;;;;11.93;65.88;94248.56;2983711;39;20100;-72
2021/04/28 04:47:24;;;;;;;23.13;12.45;;;;;;;12.01;65.93;94252.94;2996944;39;20287;-71
2021/04/28 04:49:25;;;;;;;23.05;11.18;;;;;;;11.82;66.05;94255.03;2996691;39;20058;-72
2021/04/28 04:51:26;;;;;;;21.30;11.52;;;;;;;11.87;66.08;94265.84;2993181;39;20047;-71
2021/04/28 04:53:28;;;;;;;23.00;12.18;;;;;;;12.02;66.01;94265.91;2992664;39;20042;-72
2021/04/28 04:55:29;;;;;;;21.42;11.50;;;;;;;12.11;65.58;94269.25;2984180;39;20071;-71
2021/04/28 04:57:31;;;;;;;22.35;11.68;;;;;;;12.23;65.41;94277.50;2995357;39;20063;-72
2021/04/28 04:59:32;;;;;;;24.90;12.88;;;;;;;12.27;65.30;94274.34;2981012;39;20051;-73
2021/04/28 05:01:33;;;;;;;23.95;14.27;;;;;;;12.35;65.21;94286.56;2990704;39;20671;-73
2021/04/28 05:03:34;;;;;;;27.50;15.27;;;;;;;12.33;65.12;94267.56;2988454;39;20053;-73
2021/04/28 05:05:36;;;;;;;27.30;15.70;;;;;;;12.36;65.07;94253.25;2993252;39;20078;-71
2021/04/28 05:07:37;;;;;;;23.88;16.52;;;;;;;12.40;65.22;94254.50;2993004;39;20067;-72
2021/04/28 05:09:38;;;;;;;27.38;16.13;;;;;;;12.18;66.29;94251.78;2992633;39;20057;-73
2021/04/28 05:11:40;;;;;;;26.75;14.75;;;;;;;11.78;67.64;94248.50;2982774;39;20054;-72
2021/04/28 05:13:41;;;;;;;23.23;14.63;;;;;;;11.72;68.16;94254.44;2990950;39;20062;-72
2021/04/28 05:15:42;;;;;;;24.60;14.85;;;;;;;11.91;67.69;94255.81;2983626;39;20362;-73
2021/04/28 05:17:44;;;;;;;28.52;13.88;;;;;;;12.14;66.99;94254.94;2984060;39;20506;-72
2021/04/28 05:19:45;;;;;;;21.77;13.10;;;;;;;12.35;65.95;94252.44;2993168;39;20095;-74
2021/04/28 05:21:47;;;;;;;25.02;13.30;;;;;;;12.45;65.51;94252.16;2992932;39;20090;-74
2021/04/28 05:23:48;;;;;;;18.83;12.15;;;;;;;12.49;65.34;94261.28;2992801;39;20086;-75
2021/04/28 05:25:49;;;;;;;25.88;12.07;;;;;;;12.33;65.23;94288.56;2983239;39;20075;-74
2021/04/28 05:27:51;;;;;;;16.30;11.40;;;;;;;12.36;64.82;94285.56;2990205;39;20410;-74
2021/04/28 05:29:55;;;;;;;20.38;10.70;;;;;;;12.42;62.40;94284.84;2975033;39;20064;-73
2021/04/28 05:31:56;;;;;;;14.88;9.18;;;;;;;12.46;60.35;94287.94;2995834;39;20310;-74
2021/04/28 05:33:59;;;;;;;16.00;8.45;;;;;;;12.35;59.43;94288.41;2987621;39;20047;-73
2021/04/28 05:36:00;;;;;;;12.80;8.27;;;;;;;12.48;58.06;94280.69;2998689;39;20410;-74
2021/04/28 05:38:02;;;;;;;14.20;8.30;;;;;;;12.45;57.31;94278.41;2984975;39;20032;-71
2021/04/28 05:40:05;;;;;;;14.82;7.63;;;;;;;12.37;57.23;94268.81;2991534;39;20091;-75
2021/04/28 05:42:10;;;;;;;23.00;8.23;;;;;;;12.52;57.60;94250.44;2983751;39;20055;-75
2021/04/28 05:44:11;;;;;;;16.60;7.18;;;;;;;12.81;57.20;94239.06;2983450;39;20060;-75
2021/04/28 05:46:13;;;;;;;12.60;7.13;;;;;;;13.06;56.38;94238.75;2989446;39;20088;-75
2021/04/28 05:48:16;;;;;;;12.32;7.38;;;;;;;13.18;54.82;94233.81;2993926;39;20043;-89
2021/04/28 05:50:18;;;;;;;11.07;6.85;;;;;;;13.24;55.42;94233.06;2996374;39;20100;-90
2021/04/28 05:52:20;;;;;;;13.80;8.15;;;;;;;13.30;55.13;94227.91;3002355;39;20023;-88
2021/04/28 05:54:21;;;;;;;12.20;7.00;;;;;;;13.41;54.67;94231.88;2997561;39;20451;-90
2021/04/28 05:56:23;;;;;;;12.10;6.65;;;;;;;13.41;54.34;94229.22;3014481;39;20108;-87
2021/04/28 05:58:24;;;;;;;11.30;5.65;;;;;;;13.39;53.34;94233.06;2998240;39;20039;-86
2021/04/28 06:00:27;;;;;;;11.48;6.18;;;;;;;13.51;53.49;94235.00;2998016;39;20322;-87
2021/04/28 06:02:28;;;;;;;16.05;6.00;;;;;;;13.60;52.88;94240.16;3007185;39;20348;-86
2021/04/28 06:04:29;;;;;;;9.90;5.90;;;;;;;13.53;52.38;94237.47;3006452;39;20035;-87
2021/04/28 06:06:31;;;;;;;14.07;7.22;;;;;;;13.57;53.40;94236.03;3006233;39;20034;-89
2021/04/28 06:08:32;;;;;;;11.05;6.90;;;;;;;13.49;52.97;94239.63;3005356;39;20057;-87
2021/04/28 06:10:34;;;;;;;13.75;6.90;;;;;;;13.58;53.36;94239.50;2988462;39;20086;-89
2021/04/28 06:12:35;;;;;;;10.15;6.38;;;;;;;13.74;52.26;94239.25;2999762;39;20053;-86
2021/04/28 06:14:36;;;;;;;8.00;5.15;;;;;;;13.61;51.62;94249.66;2990933;39;20048;-89
2021/04/28 06:16:38;;;;;;;10.73;5.03;;;;;;;13.72;51.11;94249.13;2983685;39;20373;-82
2021/04/28 06:18:39;;;;;;;11.27;5.47;;;;;;;13.84;51.33;94250.25;2979929;39;20060;-75
2021/04/28 06:20:41;;;;;;;9.43;5.55;;;;;;;13.69;51.78;94246.91;2977406;39;20067;-73
2021/04/28 06:22:45;;;;;;;11.88;6.70;;;;;;;13.78;51.07;94251.03;2975206;39;20040;-74
2021/04/28 06:24:47;;;;;;;7.78;4.95;;;;;;;13.86;51.60;94247.44;2985344;39;20065;-74
2021/04/28 06:26:49;;;;;;;11.65;5.55;;;;;;;13.77;51.35;94249.41;2983218;39;20044;-73
2021/04/28 06:28:50;;;;;;;7.38;4.85;;;;;;;13.70;51.71;94251.16;2999919;39;20076;-72
2021/04/28 06:30:51;;;;;;;8.05;5.05;;;;;;;13.67;51.42;94259.44;2987436;39;20044;-73
2021/04/28 06:32:52;;;;;;;10.05;5.85;;;;;;;13.93;51.36;94267.56;3004430;39;20058;-74
2021/04/28 06:34:54;;;;;;;13.77;5.32;;;;;;;14.04;51.05;94265.41;2995611;39;20393;-72
2021/04/28 06:36:55;;;;;;;7.80;5.25;;;;;;;14.04;50.63;94266.22;2995344;39;20083;-75
2021/04/28 06:38:56;;;;;;;8.07;5.05;;;;;;;13.75;50.75;94259.31;2995254;39;20110;-73
2021/04/28 06:40:57;;;;;;;7.65;5.13;;;;;;;14.05;50.57;94270.50;3003607;39;20046;-87
2021/04/28 06:42:59;;;;;;;12.00;5.07;;;;;;;14.24;49.57;94268.19;3001351;39;20407;-87
2021/04/28 06:45:00;;;;;;;10.43;5.45;;;;;;;14.29;49.92;94274.50;3008139;39;20035;-88
2021/04/28 06:47:02;;;;;;;8.98;4.95;;;;;;;14.37;49.78;94272.72;2989486;39;20043;-86
2021/04/28 06:49:03;;;;;;;10.63;5.03;;;;;;;14.22;48.99;94276.31;2999952;39;20047;-90
2021/04/28 06:51:05;;;;;;;9.95;5.30;;;;;;;14.19;49.55;94281.94;2990007;39;20087;-86
2021/04/28 06:53:06;;;;;;;8.60;4.88;;;;;;;14.30;49.95;94283.22;2999288;39;20039;-87
2021/04/28 06:55:08;;;;;;;5.70;4.22;;;;;;;14.42;48.49;94275.63;2990323;39;20032;-88
2021/04/28 06:57:23;;;;;;;9.23;5.05;;;;;;;14.62;48.35;94278.41;2991078;39;20052;-87
2021/04/28 06:59:24;;;;;;;6.65;4.28;;;;;;;14.65;47.96;94270.94;2999586;39;20075;-87
2021/04/28 07:01:25;;;;;;;7.75;4.35;;;;;;;14.70;47.71;94278.25;2981659;39;20350;-88
2021/04/28 07:03:28;;;;;;;7.97;4.05;;;;;;;14.71;47.50;94283.34;2999638;39;20071;-87
2021/04/28 07:05:30;;;;;;;5.87;4.30;;;;;;;14.54;47.13;94277.53;2989406;39;20084;-88
2021/04/28 07:07:31;;;;;;;11.38;4.55;;;;;;;14.25;47.13;94283.00;2998644;39;20047;-88
2021/04/28 07:09:33;;;;;;;7.85;4.40;;;;;;;14.52;47.35;94278.72;2999252;39;20031;-88
2021/04/28 07:11:34;;;;;;;8.38;4.45;;;;;;;14.82;47.04;94276.69;2989764;39;20043;-87
2021/04/28 07:13:36;;;;;;;8.30;3.60;;;;;;;15.09;46.21;94280.25;3007641;39;20035;-90
2021/04/28 07:15:38;;;;;;;6.80;4.50;;;;;;;15.18;45.45;94286.16;2997168;39;20043;-88
2021/04/28 07:17:39;;;;;;;8.55;4.43;;;;;;;15.17;44.92;94274.00;3003732;39;20046;-87
2021/04/28 07:19:40;;;;;;;7.50;4.30;;;;;;;15.18;44.98;94275.63;3007253;39;20372;-85
2021/04/28 07:21:44;;;;;;;9.45;4.20;;;;;;;15.26;44.95;94282.56;3007427;39;20034;-87
2021/04/28 07:23:45;;;;;;;9.77;4.82;;;;;;;15.53;44.85;94281.63;2994205;39;20140;-74
2021/04/28 07:25:47;;;;;;;10.77;3.95;;;;;;;15.70;44.36;94283.88;2992793;39;20116;-73
2021/04/28 07:27:48;;;;;;;9.25;4.40;;;;;;;15.88;44.07;94289.44;2990750;39;20047;-74
2021/04/28 07:29:50;;;;;;;7.70;4.20;;;;;;;16.11;44.17;94293.50;2981375;39;20431;-73
2021/04/28 07:31:51;;;;;;;8.25;3.55;;;;;;;16.16;43.59;94288.44;2990459;39;20075;-74
2021/04/28 07:33:52;;;;;;;7.60;4.15;;;;;;;15.97;43.82;94282.13;2988679;39;20082;-74
2021/04/28 07:35:54;;;;;;;6.93;4.32;;;;;;;16.05;44.33;94289.03;2990961;39;20047;-72
2021/04/28 07:37:55;;;;;;;9.75;4.20;;;;;;;15.93;44.04;94286.97;2982455;39;20094;-75
2021/04/28 07:39:56;;;;;;;6.53;4.53;;;;;;;16.09;43.89;94287.59;2983672;39;20052;-74
2021/04/28 07:41:58;;;;;;;5.72;4.47;;;;;;;16.11;43.79;94285.56;2988721;39;20086;-74
2021/04/28 07:44:00;;;;;;;9.75;4.50;;;;;;;16.10;43.78;94284.75;2992588;39;20059;-73
2021/04/28 07:46:01;;;;;;;8.68;4.40;;;;;;;16.08;43.90;94285.97;2989555;39;20091;-74
2021/04/28 07:48:09;;;;;;;7.82;4.63;;;;;;;15.74;44.01;94282.50;2990210;39;20133;-74
2021/04/28 07:50:11;;;;;;;7.05;4.55;;;;;;;15.91;44.48;94283.72;2983249;39;20058;-74
2021/04/28 07:52:12;;;;;;;8.68;4.30;;;;;;;16.12;44.35;94284.56;2993590;39;20047;-75
2021/04/28 07:54:14;;;;;;;7.95;4.13;;;;;;;16.38;43.34;94289.81;2975283;39;20048;-74
2021/04/28 07:56:15;;;;;;;18.58;4.72;;;;;;;16.45;42.87;94281.09;2982360;39;20079;-74
2021/04/28 07:58:17;;;;;;;7.50;4.50;;;;;;;16.56;43.31;94273.34;2996773;39;20393;-87
2021/04/28 08:00:19;;;;;;;9.10;4.30;;;;;;;16.67;42.66;94274.56;2996818;39;20143;-88
2021/04/28 08:02:20;;;;;;;7.30;4.07;;;;;;;16.29;43.47;94269.91;2996721;39;20039;-86
2021/04/28 08:04:22;;;;;;;9.27;4.57;;;;;;;16.23;43.59;94267.28;2996513;39;20039;-90
2021/04/28 08:06:23;;;;;;;11.25;4.90;;;;;;;16.45;43.48;94275.78;2987372;39;20055;-88
2021/04/28 08:08:24;;;;;;;6.97;4.80;;;;;;;16.69;43.22;94263.75;2996514;39;20039;-86
2021/04/28 08:10:26;;;;;;;10.57;4.60;;;;;;;16.89;42.88;94272.47;2996696;39;20091;-86
2021/04/28 08:12:27;;;;;;;7.05;4.43;;;;;;;16.96;42.90;94269.81;2996995;39;20066;-88
2021/04/28 08:14:28;;;;;;;8.13;4.25;;;;;;;16.97;42.26;94269.63;2987372;39;20071;-88
2021/04/28 08:16:34;;;;;;;5.97;4.00;;;;;;;17.00;42.77;94276.31;2987554;39;20059;-86
2021/04/28 08:18:35;;;;;;;8.70;4.30;;;;;;;17.24;42.89;94281.94;2988493;39;20096;-89
2021/04/28 08:20:38;;;;;;;12.00;4.32;;;;;;;17.42;42.58;94267.97;2991384;39;20065;-88
2021/04/28 08:22:40;;;;;;;7.27;4.13;;;;;;;17.33;42.33;94278.00;2987522;39;20152;-88
2021/04/28 08:24:41;;;;;;;9.18;4.30;;;;;;;17.39;42.00;94274.53;2987758;39;20045;-89
2021/04/28 08:26:42;;;;;;;9.80;4.65;;;;;;;17.31;42.06;94270.28;2998891;39;20031;-86
2021/04/28 08:28:46;;;;;;;10.15;4.30;;;;;;;17.15;42.41;94255.69;2992726;39;20063;-87
2021/04/28 08:30:48;;;;;;;12.43;4.13;;;;;;;16.99;42.40;94259.63;2989919;39;20066;-86
2021/04/28 08:32:49;;;;;;;7.95;4.97;;;;;;;17.05;42.43;94263.25;2996650;39;20062;-90
2021/04/28 08:34:51;;;;;;;9.88;5.43;;;;;;;16.71;43.49;94265.19;2987673;39;20125;-86
2021/04/28 08:36:52;;;;;;;9.15;5.55;;;;;;;17.02;43.49;94268.19;2988914;39;20043;-90
2021/04/28 08:38:54;;;;;;;5.55;4.25;;;;;;;17.10;42.95;94265.28;2995881;39;20078;-87
2021/04/28 08:40:56;;;;;;;8.00;4.15;;;;;;;17.20;42.75;94265.66;2996300;39;20061;-88
2021/04/28 08:42:58;;;;;;;15.60;4.67;;;;;;;17.33;42.90;94259.47;2996550;39;20036;-90
2021/04/28 08:44:59;;;;;;;7.45;4.47;;;;;;;17.39;42.42;94251.50;2996269;39;20043;-90
2021/04/28 08:47:01;;;;;;;6.80;4.40;;;;;;;17.42;42.39;94254.75;2997563;39;20414;-86
2021/04/28 08:49:05;;;;;;;6.85;4.30;;;;;;;17.31;42.52;94257.03;2979067;39;20043;-87
2021/04/28 08:51:07;;;;;;;6.47;4.47;;;;;;;17.34;42.45;94255.81;2979354;39;20045;-87
2021/04/28 08:53:09;;;;;;;8.05;5.00;;;;;;;17.34;42.91;94261.13;2998118;39;20039;-88
2021/04/28 08:55:12;;;;;;;6.53;4.32;;;;;;;17.47;42.33;94245.16;2982587;39;20067;-84
2021/04/28 08:57:13;;;;;;;7.53;5.00;;;;;;;17.32;42.30;94240.13;2990052;39;20060;-86
2021/04/28 08:59:14;;;;;;;10.82;4.63;;;;;;;17.07;42.76;94239.25;2986740;39;20341;-73
2021/04/28 09:01:30;;;;;;;7.68;4.63;;;;;;;17.32;43.10;94250.72;2989961;39;20504;-75
2021/04/28 09:03:41;;;;;;;8.32;4.10;;;;;;;17.73;42.97;94253.97;2983599;39;20079;-75
2021/04/28 09:05:43;;;;;;;6.22;4.43;;;;;;;17.97;42.01;94245.25;2975579;39;20140;-73
2021/04/28 09:07:45;;;;;;;7.88;3.85;;;;;;;18.05;41.50;94251.28;2993174;39;20083;-72
2021/04/28 09:10:08;;;;;;;7.97;4.60;;;;;;;18.18;41.35;94252.03;2982684;39;20062;-74
2021/04/28 09:12:13;;;;;;;7.95;4.35;;;;;;;18.27;41.07;94252.56;2980751;39;20545;-75
2021/04/28 09:14:24;;;;;;;6.60;3.83;;;;;;;18.32;40.89;94247.41;2983716;39;20036;-74
2021/04/28 09:16:25;;;;;;;6.30;4.18;;;;;;;18.21;41.12;94245.47;2992999;39;20182;-73
2021/04/28 09:18:35;;;;;;;6.18;3.92;;;;;;;18.28;41.04;94240.09;2983318;39;20047;-72
2021/04/28 09:20:40;;;;;;;8.38;3.65;;;;;;;18.27;40.92;94236.66;2990400;39;20047;-75
2021/04/28 09:22:49;;;;;;;9.98;4.25;;;;;;;18.42;41.14;94236.31;2990851;39;20420;-74
2021/04/28 09:24:52;;;;;;;7.18;4.40;;;;;;;18.19;41.05;94234.25;2992849;39;20146;-74
2021/04/28 09:26:55;;;;;;;;;;;;;;;17.80;41.83;94222.94;2992712;39;20066;-74
2021/04/28 09:28:57;;;;;;;6.25;4.00;;;;;;;17.93;42.35;94238.75;2981742;39;19943;-76
2021/04/28 09:31:07;;;;;;;11.07;4.10;;;;;;;18.23;41.65;94226.69;2996089;39;20131;-89